Time;durP1;ratioP1;P1;durP2;ratioP2;P2;SDS_P1;SDS_P2;PMS_P1;PMS_P2;Temp;Humidity;BMP_temperature;BMP_pressure;BME280_temperature;BME280_humidity;BME280_pressure;Samples;Min_cycle;Max_cycle;Signal;HPM_P1;HPM_P2
2022/06/24 00:01:38;;;;;;;;;9.20;7.60;;;;;-143.57;100.00;65101.44;5098084;27;45414;-45
2022/06/24 00:04:04;;;;;;;;;4.20;4.20;;;;;-143.57;100.00;65101.44;5098410;27;45432;-48
2022/06/24 00:06:43;;;;;;;;;5.75;4.50;;;;;-143.57;100.00;65101.44;5098408;27;45429;-46
2022/06/24 00:09:11;;;;;;;;;5.40;4.60;;;;;-143.57;100.00;65101.44;5097895;27;47109;-47
2022/06/24 00:11:36;;;;;;;;;5.00;3.00;;;;;-143.57;100.00;65101.44;5097922;27;45571;-45
2022/06/24 00:14:04;;;;;;;;;5.75;3.50;;;;;-143.57;100.00;65101.44;5079870;27;45250;-44
2022/06/24 00:16:30;;;;;;;;;4.00;4.00;;;;;-143.57;100.00;65101.44;5098062;27;45412;-47
2022/06/24 00:19:10;;;;;;;;;6.00;4.75;;;;;-143.57;100.00;65101.44;5097880;27;45367;-46
2022/06/24 00:21:35;;;;;;;;;5.80;4.80;;;;;-143.57;100.00;65101.44;5096824;27;45363;-47
2022/06/24 00:24:00;;;;;;;;;3.75;3.75;;;;;-143.57;100.00;65101.44;5097929;27;45410;-48
2022/06/24 00:26:42;;;;;;;;;5.00;5.00;;;;;-143.57;100.00;65101.44;5098267;27;45479;-45
2022/06/24 00:29:07;;;;;;;;;3.00;3.00;;;;;-143.57;100.00;65101.44;5097285;27;45258;-46
2022/06/24 00:31:33;;;;;;;;;6.00;4.75;;;;;-143.57;100.00;65101.44;5097613;27;45370;-46
2022/06/24 00:33:58;;;;;;;;;6.50;5.50;;;;;-143.57;100.00;65101.44;5097953;27;45338;-47
2022/06/24 00:36:24;;;;;;;;;4.25;4.25;;;;;-143.57;100.00;65101.44;5098023;27;45216;-47
2022/06/24 00:38:51;;;;;;;;;4.75;3.75;;;;;-143.57;100.00;65101.44;5097111;27;46302;-46
2022/06/24 00:41:23;;;;;;;;;4.40;4.40;;;;;-143.57;100.00;65101.44;5096655;27;45419;-48
2022/06/24 00:43:58;;;;;;;;;3.80;3.80;;;;;-143.57;100.00;65101.44;5097862;27;45440;-48
2022/06/24 00:46:23;;;;;;;;;3.50;3.50;;;;;-143.57;100.00;65101.44;5097782;27;45492;-47
2022/06/24 00:48:51;;;;;;;;;5.75;4.50;;;;;-143.57;100.00;65101.44;5097547;27;45382;-48
2022/06/24 00:51:18;;;;;;;;;4.20;4.20;;;;;-143.57;100.00;65101.44;5097502;27;45448;-48
2022/06/24 00:53:49;;;;;;;;;4.80;4.60;;;;;-143.57;100.00;65101.44;5097540;27;45821;-44
2022/06/24 00:56:17;;;;;;;;;6.75;4.00;;;;;-143.57;100.00;65101.44;5097962;27;45243;-48
2022/06/24 00:59:04;;;;;;;;;4.00;4.00;;;;;-143.57;100.00;65101.44;5097087;27;46228;-47
2022/06/24 01:01:40;;;;;;;;;4.60;3.20;;;;;-143.57;100.00;65101.44;5097356;27;45423;-45
2022/06/24 01:04:07;;;;;;;;;4.40;4.40;;;;;-143.57;100.00;65101.44;5097237;27;45271;-48
2022/06/24 01:06:34;;;;;;;;;6.00;5.00;;;;;-143.57;100.00;65101.44;5097821;27;45307;-45
2022/06/24 01:09:00;;;;;;;;;4.00;4.00;;;;;-143.57;100.00;65101.44;5097109;27;45979;-46
2022/06/24 01:11:42;;;;;;;;;5.75;4.50;;;;;-143.57;100.00;65101.44;5097322;27;45437;-47
2022/06/24 01:14:09;;;;;;;;;6.00;4.80;;;;;-143.57;100.00;65101.44;5097381;27;45298;-47
2022/06/24 01:16:35;;;;;;;;;3.00;3.00;;;;;-143.57;100.00;65101.44;5097436;27;45440;-46
2022/06/24 01:19:03;;;;;;;;;3.00;3.00;;;;;-143.57;100.00;65101.44;5097009;27;46234;-46
2022/06/24 01:21:50;;;;;;;;;5.40;3.80;;;;;-143.57;100.00;65101.44;5096878;27;45390;-46
2022/06/24 01:24:23;;;;;;;;;3.20;3.20;;;;;-143.57;100.00;65101.44;5097311;27;45396;-45
2022/06/24 01:26:50;;;;;;;;;3.25;3.25;;;;;-143.57;100.00;65101.44;5097383;27;45459;-48
2022/06/24 01:29:16;;;;;;;;;3.25;3.25;;;;;-143.57;100.00;65101.44;5096721;27;46346;-46
2022/06/24 01:31:42;;;;;;;;;3.80;3.80;;;;;-143.57;100.00;65101.44;5097092;27;45298;-48
2022/06/24 01:34:11;;;;;;;;;5.40;5.00;;;;;-143.57;100.00;65101.44;5097080;27;45429;-46
2022/06/24 01:36:36;;;;;;;;;4.75;4.75;;;;;-143.57;100.00;65101.44;5097380;27;45431;-47
2022/06/24 01:39:04;;;;;;;;;6.50;5.00;;;;;-143.57;100.00;65101.44;5098145;27;46896;-47
2022/06/24 01:41:29;;;;;;;;;4.00;4.00;;;;;-143.57;100.00;65101.44;5100488;27;45446;-45
2022/06/24 01:43:55;;;;;;;;;5.75;2.75;;;;;-143.57;100.00;65101.44;5100084;27;45460;-47
2022/06/24 01:46:20;;;;;;;;;4.00;4.00;;;;;-143.57;100.00;65101.44;5100623;27;45378;-46
2022/06/24 01:48:45;;;;;;;;;5.75;4.00;;;;;-143.57;100.00;65101.44;5100378;27;45289;-46
2022/06/24 01:51:13;;;;;;;;;1.75;1.50;;;;;-143.57;100.00;65101.44;5081837;27;45722;-46
2022/06/24 01:53:39;;;;;;;;;4.40;4.40;;;;;-143.57;100.00;65101.44;5100122;27;45290;-44
2022/06/24 01:56:04;;;;;;;;;4.00;4.00;;;;;-143.57;100.00;65101.44;5100632;27;45440;-45
2022/06/24 01:58:29;;;;;;;;;4.00;4.00;;;;;-143.57;100.00;65101.44;5099836;27;45306;-45
2022/06/24 02:00:55;;;;;;;;;8.50;6.50;;;;;-143.57;100.00;65101.44;5099863;27;45693;-46
2022/06/24 02:03:20;;;;;;;;;7.00;4.00;;;;;-143.57;100.00;65101.44;5100383;27;45445;-47
2022/06/24 02:05:49;;;;;;;;;7.00;5.00;;;;;-143.57;100.00;65101.44;5100232;27;45478;-46
2022/06/24 02:08:15;;;;;;;;;6.25;6.00;;;;;-143.57;100.00;65101.44;5099947;27;46064;-47
2022/06/24 02:13:28;;;;;;;;;6.80;5.00;;;;;-143.57;100.00;65101.44;5099662;27;45363;-48
2022/06/24 02:16:00;;;;;;;;;4.25;4.25;;;;;-143.57;100.00;65101.44;5100139;27;45315;-46
2022/06/24 02:18:26;;;;;;;;;5.25;5.00;;;;;-143.57;100.00;65101.44;5099885;27;47270;-46
2022/06/24 02:20:52;;;;;;;;;5.20;4.60;;;;;-143.57;100.00;65101.44;5099741;27;45322;-46
2022/06/24 02:23:19;;;;;;;;;7.00;5.75;;;;;-143.57;100.00;65101.44;5099659;27;45500;-47
2022/06/24 02:25:45;;;;;;;;;3.00;3.00;;;;;-143.57;100.00;65101.44;5081608;27;45408;-44
2022/06/24 02:28:12;;;;;;;;;5.50;3.00;;;;;-143.57;100.00;65101.44;5099354;27;45836;-46
2022/06/24 02:30:38;;;;;;;;;4.60;4.60;;;;;-143.57;100.00;65101.44;5099739;27;45310;-46
2022/06/24 02:33:04;;;;;;;;;7.50;6.50;;;;;-143.57;100.00;65101.44;5099585;27;45488;-46
2022/06/24 02:35:30;;;;;;;;;6.75;5.50;;;;;-143.57;100.00;65101.44;5099771;27;45453;-46
2022/06/24 02:37:55;;;;;;;;;7.25;7.25;;;;;-143.57;100.00;65101.44;5099519;27;46255;-45
2022/06/24 02:43:15;;;;;;;;;6.80;3.80;;;;;-143.57;100.00;65101.44;5099413;27;45347;-45
2022/06/24 02:45:41;;;;;;;;;5.25;5.25;;;;;-143.57;100.00;65101.44;5099621;27;45414;-48
2022/06/24 02:48:07;;;;;;;;;4.25;3.75;;;;;-143.57;100.00;65101.44;5099254;27;46123;-46
2022/06/24 02:50:40;;;;;;;;;5.50;4.75;;;;;-143.57;100.00;65101.44;5098541;27;45744;-45
2022/06/24 02:53:06;;;;;;;;;4.40;4.40;;;;;-143.57;100.00;65101.44;5099365;27;45249;-47
2022/06/24 02:55:31;;;;;;;;;6.50;5.00;;;;;-143.57;100.00;65101.44;5099087;27;45485;-47
2022/06/24 02:57:57;;;;;;;;;4.00;4.00;;;;;-143.57;100.00;65101.44;5098902;27;46256;-47
2022/06/24 03:00:22;;;;;;;;;4.75;3.50;;;;;-143.57;100.00;65101.44;5099158;27;45341;-46
2022/06/24 03:02:47;;;;;;;;;5.50;3.75;;;;;-143.57;100.00;65101.44;5099333;27;45220;-45
2022/06/24 03:05:13;;;;;;;;;5.00;3.25;;;;;-143.57;100.00;65101.44;5099468;27;45203;-46
2022/06/24 03:07:38;;;;;;;;;4.25;4.00;;;;;-143.57;100.00;65101.44;5098863;27;46152;-46
2022/06/24 03:10:04;;;;;;;;;4.50;4.00;;;;;-143.57;100.00;65101.44;5098905;27;45333;-45
2022/06/24 03:12:29;;;;;;;;;6.00;4.25;;;;;-143.57;100.00;65101.44;5099160;27;45679;-48
2022/06/24 03:14:55;;;;;;;;;4.75;3.25;;;;;-143.57;100.00;65101.44;5098996;27;45446;-45
2022/06/24 03:17:20;;;;;;;;;7.00;5.00;;;;;-143.57;100.00;65101.44;5098852;27;46937;-45
2022/06/24 03:19:45;;;;;;;;;7.75;6.00;;;;;-143.57;100.00;65101.44;5098699;27;45418;-45
2022/06/24 03:22:11;;;;;;;;;7.25;5.50;;;;;-143.57;100.00;65101.44;5097421;27;45255;-48
2022/06/24 03:24:36;;;;;;;;;8.00;7.50;;;;;-143.57;100.00;65101.44;5099292;27;45323;-46
2022/06/24 03:27:02;;;;;;;;;7.00;6.75;;;;;-143.57;100.00;65101.44;5098674;27;47108;-51
2022/06/24 03:29:27;;;;;;;;;5.00;4.50;;;;;-143.57;100.00;65101.44;5098733;27;45314;-45
2022/06/24 03:31:52;;;;;;;;;4.00;4.00;;;;;-143.57;100.00;65101.44;5098558;27;45452;-52
2022/06/24 03:34:18;;;;;;;;;5.00;4.75;;;;;-143.57;100.00;65101.44;5098848;27;45401;-46
2022/06/24 03:36:43;;;;;;;;;5.00;5.00;;;;;-143.57;100.00;65101.44;5098601;27;45925;-47
2022/06/24 03:39:08;;;;;;;;;5.50;5.50;;;;;-143.57;100.00;65101.44;5098415;27;45364;-47
2022/06/24 03:41:34;;;;;;;;;5.00;5.00;;;;;-143.57;100.00;65101.44;5098652;27;45340;-51
2022/06/24 03:44:00;;;;;;;;;6.00;4.75;;;;;-143.57;100.00;65101.44;5098661;27;45438;-47
2022/06/24 03:46:26;;;;;;;;;6.25;5.00;;;;;-143.57;100.00;65101.44;5098265;27;47100;-47
2022/06/24 03:48:51;;;;;;;;;6.00;6.00;;;;;-143.57;100.00;65101.44;5098398;27;45255;-48
2022/06/24 03:51:16;;;;;;;;;6.75;6.00;;;;;-143.57;100.00;65101.44;5098420;27;45507;-50
2022/06/24 03:53:42;;;;;;;;;5.25;4.75;;;;;-143.57;100.00;65101.44;5098592;27;45421;-47
2022/06/24 03:56:10;;;;;;;;;6.00;5.00;;;;;-143.57;100.00;65101.44;5098123;27;46395;-46
2022/06/24 03:58:35;;;;;;;;;5.00;5.00;;;;;-143.57;100.00;65101.44;5098148;27;45674;-50
2022/06/24 04:01:01;;;;;;;;;4.75;4.75;;;;;-143.57;100.00;65101.44;5098327;27;45540;-49
2022/06/24 04:03:27;;;;;;;;;4.75;4.00;;;;;-143.57;100.00;65101.44;5097196;27;45406;-45
2022/06/24 04:05:53;;;;;;;;;5.25;5.25;;;;;-143.57;100.00;65101.44;5098118;27;45333;-48
2022/06/24 04:08:18;;;;;;;;;6.50;5.75;;;;;-143.57;100.00;65101.44;5098068;27;45385;-47
2022/06/24 04:10:43;;;;;;;;;6.50;5.50;;;;;-143.57;100.00;65101.44;5098126;27;45412;-50
2022/06/24 04:13:09;;;;;;;;;6.25;6.00;;;;;-143.57;100.00;65101.44;5098281;27;45408;-46
2022/06/24 04:15:34;;;;;;;;;7.50;7.50;;;;;-143.57;100.00;65101.44;5097683;27;45926;-48
2022/06/24 04:18:00;;;;;;;;;6.50;6.00;;;;;-143.57;100.00;65101.44;5113885;27;45357;-49
2022/06/24 04:20:25;;;;;;;;;6.25;5.75;;;;;-143.57;100.00;65101.44;5097180;27;45256;-52
2022/06/24 04:22:50;;;;;;;;;5.00;5.00;;;;;-143.57;100.00;65101.44;5097904;27;45344;-47
2022/06/24 04:25:16;;;;;;;;;5.25;5.25;;;;;-143.57;100.00;65101.44;5097905;27;46091;-50
2022/06/24 04:27:42;;;;;;;;;8.50;6.50;;;;;-143.57;100.00;65101.44;5097622;27;45416;-46
2022/06/24 04:30:09;;;;;;;;;6.00;4.50;;;;;-143.57;100.00;65101.44;5097912;27;45348;-45
2022/06/24 04:32:35;;;;;;;;;6.00;6.00;;;;;-143.57;100.00;65101.44;5097847;27;45568;-49
2022/06/24 04:35:01;;;;;;;;;10.00;6.00;;;;;-143.57;100.00;65101.44;5097531;27;46181;-49
2022/06/24 04:37:26;;;;;;;;;5.75;5.25;;;;;-143.57;100.00;65101.44;5097665;27;45394;-49
2022/06/24 04:39:52;;;;;;;;;6.25;5.50;;;;;-143.57;100.00;65101.44;5097726;27;45276;-46
2022/06/24 04:42:17;;;;;;;;;9.50;6.50;;;;;-143.57;100.00;65101.44;5097997;27;45295;-47
2022/06/24 04:44:43;;;;;;;;;5.75;5.75;;;;;-143.57;100.00;65101.44;5097530;27;46590;-49
2022/06/24 04:47:08;;;;;;;;;6.00;6.00;;;;;-143.57;100.00;65101.44;5097461;27;45374;-48
2022/06/24 04:49:34;;;;;;;;;7.50;6.00;;;;;-143.57;100.00;65101.44;5097789;27;45782;-49
2022/06/24 04:51:59;;;;;;;;;6.00;6.00;;;;;-143.57;100.00;65101.44;5097882;27;45416;-45
2022/06/24 04:54:24;;;;;;;;;6.25;4.50;;;;;-143.57;100.00;65101.44;5097413;27;45919;-46
2022/06/24 04:56:50;;;;;;;;;6.75;5.00;;;;;-143.57;100.00;65101.44;5097451;27;45398;-50
2022/06/24 04:59:16;;;;;;;;;10.00;6.50;;;;;-143.57;100.00;65101.44;5097444;27;45580;-49
2022/06/24 05:01:41;;;;;;;;;5.00;5.00;;;;;-143.57;100.00;65101.44;5097534;27;45290;-48
2022/06/24 05:04:06;;;;;;;;;5.00;5.00;;;;;-143.57;100.00;65101.44;5097227;27;45330;-46
2022/06/24 05:06:32;;;;;;;;;6.00;5.00;;;;;-143.57;100.00;65101.44;5097519;27;45368;-47
2022/06/24 05:08:58;;;;;;;;;7.00;7.00;;;;;-143.57;100.00;65101.44;5097222;27;45341;-45
2022/06/24 05:11:24;;;;;;;;;6.25;6.25;;;;;-143.57;100.00;65101.44;5097428;27;45353;-51
2022/06/24 05:13:49;;;;;;;;;7.25;7.00;;;;;-143.57;100.00;65101.44;5098087;27;45910;-47
2022/06/24 05:16:15;;;;;;;;;6.25;6.25;;;;;-143.57;100.00;65101.44;5081792;27;45334;-47
2022/06/24 05:18:40;;;;;;;;;8.00;7.00;;;;;-143.57;100.00;65101.44;5101117;27;45287;-49
2022/06/24 05:21:06;;;;;;;;;7.75;5.00;;;;;-143.57;100.00;65101.44;5101079;27;45548;-48
2022/06/24 05:23:31;;;;;;;;;6.50;6.50;;;;;-143.57;100.00;65101.44;5100408;27;47162;-49
2022/06/24 05:25:57;;;;;;;;;9.25;8.00;;;;;-143.57;100.00;65101.44;5100747;27;45381;-45
2022/06/24 05:28:22;;;;;;;;;11.25;7.75;;;;;-143.57;100.00;65101.44;5100654;27;45407;-50
2022/06/24 05:30:54;;;;;;;;;8.00;7.00;;;;;-143.57;100.00;65101.44;5100893;27;45426;-44
2022/06/24 05:33:19;;;;;;;;;9.50;8.00;;;;;-143.57;100.00;65101.44;5100244;27;46138;-45
2022/06/24 05:35:44;;;;;;;;;6.50;5.50;;;;;-143.57;100.00;65101.44;5082011;27;45492;-50
2022/06/24 05:38:10;;;;;;;;;9.50;7.00;;;;;-143.57;100.00;65101.44;5100675;27;45405;-44
2022/06/24 05:40:35;;;;;;;;;5.50;5.50;;;;;-143.57;100.00;65101.44;5100769;27;45134;-47
2022/06/24 05:43:01;;;;;;;;;6.50;6.50;;;;;-143.57;100.00;65101.44;5100614;27;46106;-47
2022/06/24 05:45:26;;;;;;;;;8.50;7.25;;;;;-143.57;100.00;65101.44;5100164;27;45494;-46
2022/06/24 05:47:52;;;;;;;;;6.75;6.25;;;;;-143.57;100.00;65101.44;5100373;27;45348;-47
2022/06/24 05:50:17;;;;;;;;;8.25;6.50;;;;;-143.57;100.00;65101.44;5100749;27;45512;-47
2022/06/24 05:55:26;;;;;;;;;8.25;8.25;;;;;-143.57;100.00;65101.44;5100232;27;45374;-45
2022/06/24 05:57:52;;;;;;;;;7.50;7.50;;;;;-143.57;100.00;65101.44;5100374;27;45362;-44
2022/06/24 06:00:17;;;;;;;;;7.50;6.25;;;;;-143.57;100.00;65101.44;5100169;27;45578;-46
2022/06/24 06:02:43;;;;;;;;;5.75;5.75;;;;;-143.57;100.00;65101.44;5100112;27;45279;-45
2022/06/24 06:05:08;;;;;;;;;7.50;7.50;;;;;-143.57;100.00;65101.44;5099965;27;45258;-47
2022/06/24 06:07:33;;;;;;;;;5.00;5.00;;;;;-143.57;100.00;65101.44;5100050;27;45321;-49
2022/06/24 06:09:59;;;;;;;;;7.00;5.50;;;;;-143.57;100.00;65101.44;5100268;27;45346;-47
2022/06/24 06:12:24;;;;;;;;;5.00;5.00;;;;;-143.57;100.00;65101.44;5099835;27;45352;-48
2022/06/24 06:14:50;;;;;;;;;6.50;6.25;;;;;-143.57;100.00;65101.44;5100033;27;45365;-51
2022/06/24 06:17:15;;;;;;;;;6.75;6.00;;;;;-143.57;100.00;65101.44;5099848;27;45836;-46
2022/06/24 06:19:40;;;;;;;;;9.25;6.00;;;;;-143.57;100.00;65101.44;5099527;27;45330;-45
2022/06/24 06:22:06;;;;;;;;;7.00;7.00;;;;;-143.57;100.00;65101.44;5099751;27;46004;-50
2022/06/24 06:24:32;;;;;;;;;5.50;5.50;;;;;-143.57;100.00;65101.44;5099522;27;45453;-45
2022/06/24 06:26:58;;;;;;;;;8.75;5.75;;;;;-143.57;100.00;65101.44;5098898;27;45429;-46
2022/06/24 06:29:23;;;;;;;;;8.00;5.50;;;;;-143.57;100.00;65101.44;5100052;27;45173;-44
2022/06/24 06:31:50;;;;;;;;;8.50;5.00;;;;;-143.57;100.00;65101.44;5099235;27;45347;-45
2022/06/24 06:34:18;;;;;;;;;5.50;3.75;;;;;-143.57;100.00;65101.44;5099688;27;45311;-46
2022/06/24 06:36:44;;;;;;;;;6.25;5.00;;;;;-143.57;100.00;65101.44;5099834;27;45493;-45
2022/06/24 06:39:09;;;;;;;;;10.50;6.00;;;;;-143.57;100.00;65101.44;5100043;27;45260;-50
2022/06/24 06:41:34;;;;;;;;;6.50;5.50;;;;;-143.57;100.00;65101.44;5099728;27;45993;-45
2022/06/24 06:44:00;;;;;;;;;6.75;4.75;;;;;-143.57;100.00;65101.44;5099632;27;45267;-45
2022/06/24 06:46:25;;;;;;;;;6.50;6.00;;;;;-143.57;100.00;65101.44;5099680;27;45375;-46
2022/06/24 06:48:51;;;;;;;;;4.25;4.00;;;;;-143.57;100.00;65101.44;5099757;27;45476;-48
2022/06/24 06:51:16;;;;;;;;;4.00;4.00;;;;;-143.57;100.00;65101.44;5099355;27;46107;-44
2022/06/24 06:53:41;;;;;;;;;5.75;5.75;;;;;-143.57;100.00;65101.44;5099154;27;45264;-46
2022/06/24 06:56:07;;;;;;;;;8.00;4.75;;;;;-143.57;100.00;65101.44;5099368;27;45543;-46
2022/06/24 06:58:32;;;;;;;;;6.50;6.00;;;;;-143.57;100.00;65101.44;5081271;27;45474;-45
2022/06/24 07:00:58;;;;;;;;;5.25;4.25;;;;;-143.57;100.00;65101.44;5099039;27;46129;-45
2022/06/24 07:03:23;;;;;;;;;4.25;3.50;;;;;-143.57;100.00;65101.44;5099093;27;45305;-44
2022/06/24 07:05:50;;;;;;;;;4.50;4.50;;;;;-143.57;100.00;65101.44;5099294;27;45402;-45
2022/06/24 07:08:16;;;;;;;;;5.75;5.00;;;;;-143.57;100.00;65101.44;5099299;27;45261;-45
2022/06/24 07:10:43;;;;;;;;;6.50;6.50;;;;;-143.57;100.00;65101.44;5098859;27;47058;-45
2022/06/24 07:13:08;;;;;;;;;6.80;6.00;;;;;-143.57;100.00;65101.44;5098656;27;45322;-45
2022/06/24 07:15:34;;;;;;;;;5.50;5.50;;;;;-143.57;100.00;65101.44;5098887;27;45607;-44
2022/06/24 07:18:00;;;;;;;;;5.25;5.00;;;;;-143.57;100.00;65101.44;5098808;27;45283;-45
2022/06/24 07:20:25;;;;;;;;;5.25;4.50;;;;;-143.57;100.00;65101.44;5080257;27;46154;-46
2022/06/24 07:22:51;;;;;;;;;5.00;5.00;;;;;-143.57;100.00;65101.44;5098375;27;45420;-45
2022/06/24 07:25:16;;;;;;;;;7.00;5.75;;;;;-143.57;100.00;65101.44;5098742;27;45436;-47
2022/06/24 07:27:42;;;;;;;;;8.25;4.75;;;;;-143.57;100.00;65101.44;5098762;27;45417;-46
2022/06/24 07:30:08;;;;;;;;;3.00;3.00;;;;;-143.57;100.00;65101.44;5098573;27;45366;-46
2022/06/24 07:32:33;;;;;;;;;7.00;5.00;;;;;-143.57;100.00;65101.44;5098286;27;45220;-46
2022/06/24 07:34:58;;;;;;;;;4.50;4.50;;;;;-143.57;100.00;65101.44;5098803;27;45275;-47
2022/06/24 07:37:24;;;;;;;;;3.25;3.25;;;;;-143.57;100.00;65101.44;5098486;27;45449;-48
2022/06/24 07:39:49;;;;;;;;;4.75;4.00;;;;;-143.57;100.00;65101.44;5098241;27;46051;-47
2022/06/24 07:42:14;;;;;;;;;3.75;2.25;;;;;-143.57;100.00;65101.44;5098588;27;45279;-47
2022/06/24 07:44:42;;;;;;;;;3.75;3.75;;;;;-143.57;100.00;65101.44;5098494;27;45582;-48
2022/06/24 07:47:11;;;;;;;;;3.20;1.60;;;;;-143.57;100.00;65101.44;5098553;27;45478;-49
2022/06/24 07:49:37;;;;;;;;;7.00;4.20;;;;;-143.57;100.00;65101.44;5098144;27;45385;-46
2022/06/24 07:52:04;;;;;;;;;2.25;2.25;;;;;-143.57;100.00;65101.44;5098150;27;45434;-49
2022/06/24 07:54:29;;;;;;;;;2.40;2.40;;;;;-143.57;100.00;65101.44;5097940;27;45390;-48
2022/06/24 07:56:57;;;;;;;;;4.25;2.25;;;;;-143.57;100.00;65101.44;5098157;27;45408;-46
2022/06/24 07:59:31;;;;;;;;;1.80;1.00;;;;;-143.57;100.00;65101.44;5097939;27;46094;-50
2022/06/24 08:01:58;;;;;;;;;4.60;2.20;;;;;-143.57;100.00;65101.44;5097930;27;45459;-49
2022/06/24 08:04:25;;;;;;;;;4.00;4.00;;;;;-143.57;100.00;65101.44;5097998;27;45347;-46
2022/06/24 08:06:52;;;;;;;;;3.00;3.00;;;;;-143.57;100.00;65101.44;5092229;27;45429;-49
2022/06/24 08:09:21;;;;;;;;;4.20;2.20;;;;;-143.57;100.00;65101.44;5089121;27;47064;-48
2022/06/24 08:11:47;;;;;;;;;2.00;2.00;;;;;-143.57;100.00;65101.44;5092782;27;45464;-46
2022/06/24 08:14:14;;;;;;;;;4.00;4.00;;;;;-143.57;100.00;65101.44;5096775;27;45486;-50
2022/06/24 08:16:40;;;;;;;;;3.40;2.20;;;;;-143.57;100.00;65101.44;5078265;27;45461;-46
2022/06/24 08:19:06;;;;;;;;;2.40;2.40;;;;;-143.57;100.00;65101.44;5096436;27;46078;-46
2022/06/24 08:21:31;;;;;;;;;4.50;2.50;;;;;-143.57;100.00;65101.44;5094541;27;45874;-46
2022/06/24 08:23:57;;;;;;;;;4.50;3.00;;;;;-143.57;100.00;65101.44;5088664;27;45719;-45
2022/06/24 08:26:22;;;;;;;;;3.75;3.50;;;;;-143.57;100.00;65101.44;5089046;27;45538;-46
2022/06/24 08:28:48;;;;;;;;;6.50;4.75;;;;;-143.57;100.00;65101.44;5088063;27;47103;-47
2022/06/24 08:31:13;;;;;;;;;5.00;3.75;;;;;-143.57;100.00;65101.44;5088796;27;45850;-48
2022/06/24 08:33:39;;;;;;;;;4.00;4.00;;;;;-143.57;100.00;65101.44;5088501;27;45771;-47
2022/06/24 08:36:05;;;;;;;;;6.25;4.00;;;;;-143.57;100.00;65101.44;5089285;27;45981;-47
2022/06/24 08:38:31;;;;;;;;;3.00;2.00;;;;;-143.57;100.00;65101.44;5088614;27;46058;-45
2022/06/24 08:41:03;;;;;;;;;4.00;4.00;;;;;-143.57;100.00;65101.44;5088303;27;45512;-48
2022/06/24 08:43:36;;;;;;;;;3.00;3.00;;;;;-143.57;100.00;65101.44;5088054;27;45701;-47
2022/06/24 08:46:03;;;;;;;;;3.00;3.00;;;;;-143.57;100.00;65101.44;5088811;27;45359;-50
2022/06/24 08:48:31;;;;;;;;;4.40;4.40;;;;;-143.57;100.00;65101.44;5089893;27;46110;-48
2022/06/24 08:50:57;;;;;;;;;3.20;3.00;;;;;-143.57;100.00;65101.44;5094960;27;45794;-52
2022/06/24 08:53:26;;;;;;;;;3.80;3.80;;;;;-143.57;100.00;65101.44;5095624;27;45452;-46
2022/06/24 08:55:51;;;;;;;;;4.60;4.00;;;;;-143.57;100.00;65101.44;5095145;27;45544;-47
2022/06/24 08:58:19;;;;;;;;;4.00;4.00;;;;;-143.57;100.00;65101.44;5095137;27;46328;-47
2022/06/24 09:00:45;;;;;;;;;5.00;4.00;;;;;-143.57;100.00;65101.44;5094818;27;45476;-48
2022/06/24 09:03:11;;;;;;;;;3.20;3.20;;;;;-143.57;100.00;65101.44;5095471;27;45565;-46
2022/06/24 09:05:37;;;;;;;;;1.75;1.00;;;;;-143.57;100.00;65101.44;5095255;27;45486;-47
2022/06/24 09:08:08;;;;;;;;;5.00;3.50;;;;;-143.57;100.00;65101.44;5095253;27;45895;-46
2022/06/24 09:10:35;;;;;;;;;3.40;3.40;;;;;-143.57;100.00;65101.44;5094780;27;45750;-45
2022/06/24 09:13:01;;;;;;;;;4.40;2.60;;;;;-143.57;100.00;65101.44;5095038;27;45983;-48
2022/06/24 09:15:27;;;;;;;;;2.75;2.75;;;;;-143.57;100.00;65101.44;5095078;27;45745;-48
2022/06/24 09:17:54;;;;;;;;;3.25;2.00;;;;;-143.57;100.00;65101.44;5094869;27;46191;-47
2022/06/24 09:20:22;;;;;;;;;2.60;0.60;;;;;-143.57;100.00;65101.44;5076713;27;45515;-50
2022/06/24 09:22:48;;;;;;;;;1.00;1.00;;;;;-143.57;100.00;65101.44;5095697;27;46662;-48
2022/06/24 09:25:14;;;;;;;;;1.00;1.00;;;;;-143.57;100.00;65101.44;5095033;27;45437;-48
2022/06/24 09:27:44;;;;;;;;;3.00;2.00;;;;;-143.57;100.00;65101.44;5095024;27;45867;-46
2022/06/24 09:30:11;;;;;;;;;1.00;1.00;;;;;-143.57;100.00;65101.44;5094899;27;45386;-45
2022/06/24 09:32:51;;;;;;;;;3.20;2.00;;;;;-143.57;100.00;65101.44;5095198;27;45451;-47
2022/06/24 09:35:17;;;;;;;;;2.40;2.00;;;;;-143.57;100.00;65101.44;5095247;27;45408;-50
2022/06/24 09:37:47;;;;;;;;;1.20;1.00;;;;;-143.57;100.00;65101.44;5095105;27;46072;-47
2022/06/24 09:40:24;;;;;;;;;1.00;1.00;;;;;-143.57;100.00;65101.44;5094704;27;45471;-45
2022/06/24 09:42:56;;;;;;;;;1.20;1.20;;;;;-143.57;100.00;65101.44;5095281;27;45425;-47
2022/06/24 09:45:23;;;;;;;;;1.40;1.40;;;;;-143.57;100.00;65101.44;5094958;27;45680;-45
2022/06/24 09:47:52;;;;;;;;;0.80;0.00;;;;;-143.57;100.00;65101.44;5098205;27;45945;-48
2022/06/24 09:50:19;;;;;;;;;0.40;0.40;;;;;-143.57;100.00;65101.44;5102245;27;45450;-47
2022/06/24 09:52:45;;;;;;;;;0.20;0.20;;;;;-143.57;100.00;65101.44;5102102;27;45513;-47
2022/06/24 09:55:11;;;;;;;;;1.40;0.80;;;;;-143.57;100.00;65101.44;5102415;27;45907;-48
2022/06/24 09:57:38;;;;;;;;;1.50;1.50;;;;;-143.57;100.00;65101.44;5100019;27;46184;-47
2022/06/24 10:02:53;;;;;;;;;0.20;0.00;;;;;-143.57;100.00;65101.44;5094248;27;45430;-47
2022/06/24 10:05:19;;;;;;;;;1.00;1.00;;;;;-143.57;100.00;65101.44;5099148;27;45410;-48
2022/06/24 10:07:46;;;;;;;;;1.75;1.75;;;;;-143.57;100.00;65101.44;5098370;27;46864;-49
2022/06/24 10:10:14;;;;;;;;;0.40;0.40;;;;;-143.57;100.00;65101.44;5099487;27;45347;-50
2022/06/24 10:12:46;;;;;;;;;1.80;0.20;;;;;-143.57;100.00;65101.44;5100039;27;45224;-49
2022/06/24 10:15:14;;;;;;;;;0.00;0.00;;;;;-143.57;100.00;65101.44;5100300;27;45327;-50
2022/06/24 10:17:42;;;;;;;;;0.20;0.20;;;;;-143.57;100.00;65101.44;5099763;27;47009;-46
2022/06/24 10:20:13;;;;;;;;;1.00;0.00;;;;;-143.57;100.00;65101.44;5081485;27;45329;-47
2022/06/24 10:22:43;;;;;;;;;1.80;1.80;;;;;-143.57;100.00;65101.44;5099668;27;45268;-49
2022/06/24 10:25:08;;;;;;;;;0.00;0.00;;;;;-143.57;100.00;65101.44;5100027;27;45484;-48
2022/06/24 10:27:58;;;;;;;;;2.50;2.00;;;;;-143.57;100.00;65101.44;5099967;27;45320;-45
2022/06/24 10:30:39;;;;;;;;;0.20;0.20;;;;;-143.57;100.00;65101.44;5099636;27;45345;-51
2022/06/24 10:33:11;;;;;;;;;2.00;2.00;;;;;-143.57;100.00;65101.44;5099297;27;45485;-47
2022/06/24 10:36:00;;;;;;;;;1.00;1.00;;;;;-143.57;100.00;65101.44;5099717;27;45204;-49
2022/06/24 10:38:34;;;;;;;;;0.80;0.80;;;;;-143.57;100.00;65101.44;5115178;27;46205;-46
2022/06/24 10:41:02;;;;;;;;;1.80;1.80;;;;;-143.57;100.00;65101.44;5099082;27;45673;-47
2022/06/24 10:43:41;;;;;;;;;0.60;0.60;;;;;-143.57;100.00;65101.44;5099494;27;45354;-46
2022/06/24 10:46:12;;;;;;;;;1.80;1.80;;;;;-143.57;100.00;65101.44;5099696;27;45291;-48
2022/06/24 10:48:59;;;;;;;;;4.00;2.60;;;;;-143.57;100.00;65101.44;5098895;27;45464;-46
2022/06/24 10:51:28;;;;;;;;;1.20;0.60;;;;;-143.57;100.00;65101.44;5099179;27;45366;-49
2022/06/24 10:54:02;;;;;;;;;1.20;0.20;;;;;-143.57;100.00;65101.44;5099243;27;45358;-47
2022/06/24 10:56:54;;;;;;;;;0.80;0.80;;;;;-143.57;100.00;65101.44;5099575;27;45455;-46
2022/06/24 10:59:20;;;;;;;;;0.20;0.20;;;;;-143.57;100.00;65101.44;5096049;27;46121;-48
2022/06/24 11:01:47;;;;;;;;;0.80;0.80;;;;;-143.57;100.00;65101.44;5098938;27;45470;-46
2022/06/24 11:04:25;;;;;;;;;2.00;2.00;;;;;-143.57;100.00;65101.44;5099080;27;45471;-47
2022/06/24 11:07:07;;;;;;;;;0.80;0.80;;;;;-143.57;100.00;65101.44;5099342;27;45535;-45
2022/06/24 11:09:32;;;;;;;;;1.80;1.80;;;;;-143.57;100.00;65101.44;5080658;27;46027;-49
2022/06/24 11:11:58;;;;;;;;;1.75;1.75;;;;;-143.57;100.00;65101.44;5098259;27;45370;-49
2022/06/24 11:14:26;;;;;;;;;1.25;1.00;;;;;-143.57;100.00;65101.44;5099128;27;45378;-49
2022/06/24 11:16:52;;;;;;;;;2.00;1.80;;;;;-143.57;100.00;65101.44;5098911;27;45548;-49
2022/06/24 11:19:18;;;;;;;;;1.50;0.75;;;;;-143.57;100.00;65101.44;5098681;27;45475;-46
2022/06/24 11:21:50;;;;;;;;;1.80;1.80;;;;;-143.57;100.00;65101.44;5098500;27;45318;-44